sensor_id;sensor_type;location;lat;lon;timestamp;P1;durP1;ratioP1;P2;durP2;ratioP2
29384;SDS011;16367;48.736;9.218;2024-03-25T00:00:25;5.68;;;1.20;;
29384;SDS011;16367;48.736;9.218;2024-03-25T00:04:26;2.80;;;1.15;;
29384;SDS011;16367;48.736;9.218;2024-03-25T00:08:27;3.80;;;1.40;;
29384;SDS011;16367;48.736;9.218;2024-03-25T00:12:30;5.45;;;1.35;;
29384;SDS011;16367;48.736;9.218;2024-03-25T00:16:31;6.05;;;1.50;;
29384;SDS011;16367;48.736;9.218;2024-03-25T00:20:33;6.05;;;2.30;;
29384;SDS011;16367;48.736;9.218;2024-03-25T00:24:34;8.32;;;1.83;;
29384;SDS011;16367;48.736;9.218;2024-03-25T00:28:37;5.97;;;1.45;;
29384;SDS011;16367;48.736;9.218;2024-03-25T00:32:38;2.38;;;0.82;;
29384;SDS011;16367;48.736;9.218;2024-03-25T00:36:39;3.42;;;1.40;;
29384;SDS011;16367;48.736;9.218;2024-03-25T00:40:40;5.00;;;1.88;;
29384;SDS011;16367;48.736;9.218;2024-03-25T00:44:43;6.18;;;1.80;;
29384;SDS011;16367;48.736;9.218;2024-03-25T00:48:44;4.72;;;1.35;;
29384;SDS011;16367;48.736;9.218;2024-03-25T00:50:45;4.22;;;1.42;;
29384;SDS011;16367;48.736;9.218;2024-03-25T00:54:46;4.25;;;1.42;;
29384;SDS011;16367;48.736;9.218;2024-03-25T00:58:49;4.47;;;1.30;;
29384;SDS011;16367;48.736;9.218;2024-03-25T01:00:49;6.20;;;1.58;;
29384;SDS011;16367;48.736;9.218;2024-03-25T01:02:51;4.30;;;1.58;;
29384;SDS011;16367;48.736;9.218;2024-03-25T01:06:52;4.55;;;1.40;;
29384;SDS011;16367;48.736;9.218;2024-03-25T01:08:52;6.32;;;1.73;;
29384;SDS011;16367;48.736;9.218;2024-03-25T01:12:54;4.95;;;1.55;;
29384;SDS011;16367;48.736;9.218;2024-03-25T01:14:56;5.43;;;1.75;;
29384;SDS011;16367;48.736;9.218;2024-03-25T01:16:56;4.60;;;1.38;;
29384;SDS011;16367;48.736;9.218;2024-03-25T01:20:57;5.43;;;1.65;;
29384;SDS011;16367;48.736;9.218;2024-03-25T01:24:59;4.28;;;1.70;;
29384;SDS011;16367;48.736;9.218;2024-03-25T01:29:00;3.78;;;1.33;;
29384;SDS011;16367;48.736;9.218;2024-03-25T01:33:03;4.47;;;1.77;;
29384;SDS011;16367;48.736;9.218;2024-03-25T01:35:04;5.38;;;2.15;;
29384;SDS011;16367;48.736;9.218;2024-03-25T01:37:05;6.43;;;1.75;;
29384;SDS011;16367;48.736;9.218;2024-03-25T01:41:07;4.72;;;1.70;;
29384;SDS011;16367;48.736;9.218;2024-03-25T01:43:08;7.82;;;2.20;;
29384;SDS011;16367;48.736;9.218;2024-03-25T01:47:10;4.68;;;1.40;;
29384;SDS011;16367;48.736;9.218;2024-03-25T01:49:11;4.60;;;1.33;;
29384;SDS011;16367;48.736;9.218;2024-03-25T01:53:13;4.38;;;1.58;;
29384;SDS011;16367;48.736;9.218;2024-03-25T01:55:15;4.05;;;1.60;;
29384;SDS011;16367;48.736;9.218;2024-03-25T01:57:18;5.20;;;1.60;;
29384;SDS011;16367;48.736;9.218;2024-03-25T01:59:20;7.28;;;2.17;;
29384;SDS011;16367;48.736;9.218;2024-03-25T02:03:22;4.72;;;1.65;;
29384;SDS011;16367;48.736;9.218;2024-03-25T02:05:23;6.03;;;2.08;;
29384;SDS011;16367;48.736;9.218;2024-03-25T02:09:25;7.20;;;1.98;;
29384;SDS011;16367;48.736;9.218;2024-03-25T02:11:27;6.57;;;1.88;;
29384;SDS011;16367;48.736;9.218;2024-03-25T02:15:29;3.75;;;1.40;;
29384;SDS011;16367;48.736;9.218;2024-03-25T02:19:32;3.38;;;1.20;;
29384;SDS011;16367;48.736;9.218;2024-03-25T02:21:33;4.97;;;1.65;;
29384;SDS011;16367;48.736;9.218;2024-03-25T02:25:35;6.63;;;1.90;;
29384;SDS011;16367;48.736;9.218;2024-03-25T02:29:38;7.13;;;2.13;;
29384;SDS011;16367;48.736;9.218;2024-03-25T02:33:39;4.15;;;1.67;;
29384;SDS011;16367;48.736;9.218;2024-03-25T02:37:42;6.28;;;1.75;;
29384;SDS011;16367;48.736;9.218;2024-03-25T02:41:44;6.40;;;1.35;;
29384;SDS011;16367;48.736;9.218;2024-03-25T02:43:46;7.28;;;1.75;;
29384;SDS011;16367;48.736;9.218;2024-03-25T02:45:46;7.65;;;2.10;;
29384;SDS011;16367;48.736;9.218;2024-03-25T02:49:48;6.25;;;1.83;;
29384;SDS011;16367;48.736;9.218;2024-03-25T02:51:48;5.18;;;1.83;;
29384;SDS011;16367;48.736;9.218;2024-03-25T02:55:50;5.25;;;1.70;;
29384;SDS011;16367;48.736;9.218;2024-03-25T02:59:52;5.07;;;1.80;;
29384;SDS011;16367;48.736;9.218;2024-03-25T03:01:53;5.85;;;1.70;;
29384;SDS011;16367;48.736;9.218;2024-03-25T03:05:54;4.82;;;1.85;;
29384;SDS011;16367;48.736;9.218;2024-03-25T03:09:55;4.72;;;1.40;;
29384;SDS011;16367;48.736;9.218;2024-03-25T03:11:56;5.47;;;1.65;;
29384;SDS011;16367;48.736;9.218;2024-03-25T03:15:59;4.82;;;1.88;;
29384;SDS011;16367;48.736;9.218;2024-03-25T03:17:59;7.65;;;2.20;;
29384;SDS011;16367;48.736;9.218;2024-03-25T03:22:01;5.47;;;1.50;;
29384;SDS011;16367;48.736;9.218;2024-03-25T03:26:02;5.22;;;2.63;;
29384;SDS011;16367;48.736;9.218;2024-03-25T03:30:04;8.25;;;2.03;;
29384;SDS011;16367;48.736;9.218;2024-03-25T03:32:06;5.97;;;1.90;;
29384;SDS011;16367;48.736;9.218;2024-03-25T03:34:07;5.63;;;2.03;;
29384;SDS011;16367;48.736;9.218;2024-03-25T03:38:08;9.52;;;2.03;;
29384;SDS011;16367;48.736;9.218;2024-03-25T03:42:10;5.40;;;1.88;;
29384;SDS011;16367;48.736;9.218;2024-03-25T03:46:11;6.93;;;2.13;;
29384;SDS011;16367;48.736;9.218;2024-03-25T03:50:14;5.68;;;1.88;;
29384;SDS011;16367;48.736;9.218;2024-03-25T03:54:15;6.78;;;2.03;;
29384;SDS011;16367;48.736;9.218;2024-03-25T03:56:16;5.57;;;1.95;;
29384;SDS011;16367;48.736;9.218;2024-03-25T04:00:17;9.30;;;2.63;;
29384;SDS011;16367;48.736;9.218;2024-03-25T04:02:18;5.38;;;1.92;;
29384;SDS011;16367;48.736;9.218;2024-03-25T04:06:20;6.40;;;2.50;;
29384;SDS011;16367;48.736;9.218;2024-03-25T04:10:22;4.90;;;2.15;;
29384;SDS011;16367;48.736;9.218;2024-03-25T04:14:23;5.30;;;1.58;;
29384;SDS011;16367;48.736;9.218;2024-03-25T04:18:24;10.48;;;2.30;;
29384;SDS011;16367;48.736;9.218;2024-03-25T04:22:28;4.05;;;1.77;;
29384;SDS011;16367;48.736;9.218;2024-03-25T04:26:29;6.32;;;2.08;;
29384;SDS011;16367;48.736;9.218;2024-03-25T04:30:30;5.35;;;1.95;;
29384;SDS011;16367;48.736;9.218;2024-03-25T04:32:31;6.18;;;1.88;;
29384;SDS011;16367;48.736;9.218;2024-03-25T04:34:31;5.45;;;2.50;;
29384;SDS011;16367;48.736;9.218;2024-03-25T04:38:34;8.13;;;2.20;;
29384;SDS011;16367;48.736;9.218;2024-03-25T04:42:35;4.88;;;2.00;;
29384;SDS011;16367;48.736;9.218;2024-03-25T04:46:36;4.60;;;1.80;;
29384;SDS011;16367;48.736;9.218;2024-03-25T04:48:37;4.88;;;2.05;;
29384;SDS011;16367;48.736;9.218;2024-03-25T04:50:38;7.97;;;1.98;;
29384;SDS011;16367;48.736;9.218;2024-03-25T04:52:40;4.60;;;2.00;;
29384;SDS011;16367;48.736;9.218;2024-03-25T04:54:40;6.10;;;2.53;;
29384;SDS011;16367;48.736;9.218;2024-03-25T04:58:41;6.43;;;2.05;;
29384;SDS011;16367;48.736;9.218;2024-03-25T05:00:42;5.18;;;2.03;;
29384;SDS011;16367;48.736;9.218;2024-03-25T05:04:43;6.68;;;2.28;;
29384;SDS011;16367;48.736;9.218;2024-03-25T05:08:46;8.55;;;2.30;;
29384;SDS011;16367;48.736;9.218;2024-03-25T05:10:46;5.82;;;2.10;;
29384;SDS011;16367;48.736;9.218;2024-03-25T05:14:48;7.68;;;2.13;;
29384;SDS011;16367;48.736;9.218;2024-03-25T05:18:49;7.60;;;2.10;;
29384;SDS011;16367;48.736;9.218;2024-03-25T05:22:50;5.10;;;2.15;;
29384;SDS011;16367;48.736;9.218;2024-03-25T05:26:53;8.70;;;2.35;;
29384;SDS011;16367;48.736;9.218;2024-03-25T05:30:55;5.38;;;2.10;;
29384;SDS011;16367;48.736;9.218;2024-03-25T05:32:55;6.45;;;2.47;;
29384;SDS011;16367;48.736;9.218;2024-03-25T05:36:57;5.55;;;2.08;;
29384;SDS011;16367;48.736;9.218;2024-03-25T05:40:59;4.63;;;1.50;;
29384;SDS011;16367;48.736;9.218;2024-03-25T05:43:00;7.38;;;2.10;;
29384;SDS011;16367;48.736;9.218;2024-03-25T05:47:01;5.53;;;1.73;;
29384;SDS011;16367;48.736;9.218;2024-03-25T05:51:03;7.47;;;2.03;;
29384;SDS011;16367;48.736;9.218;2024-03-25T05:53:05;5.93;;;1.92;;
29384;SDS011;16367;48.736;9.218;2024-03-25T05:57:07;4.93;;;2.03;;
29384;SDS011;16367;48.736;9.218;2024-03-25T05:59:08;5.70;;;2.08;;
29384;SDS011;16367;48.736;9.218;2024-03-25T06:03:09;7.38;;;2.10;;
29384;SDS011;16367;48.736;9.218;2024-03-25T06:07:10;6.70;;;2.15;;
29384;SDS011;16367;48.736;9.218;2024-03-25T06:09:11;4.93;;;2.10;;
29384;SDS011;16367;48.736;9.218;2024-03-25T06:13:13;7.50;;;2.17;;
29384;SDS011;16367;48.736;9.218;2024-03-25T06:15:14;8.80;;;2.50;;
29384;SDS011;16367;48.736;9.218;2024-03-25T06:19:15;7.28;;;2.05;;
29384;SDS011;16367;48.736;9.218;2024-03-25T06:21:16;7.90;;;2.67;;
29384;SDS011;16367;48.736;9.218;2024-03-25T06:25:23;5.20;;;2.13;;
29384;SDS011;16367;48.736;9.218;2024-03-25T06:29:26;5.30;;;1.85;;
29384;SDS011;16367;48.736;9.218;2024-03-25T06:31:27;5.50;;;2.33;;
29384;SDS011;16367;48.736;9.218;2024-03-25T06:35:28;7.43;;;2.47;;
29384;SDS011;16367;48.736;9.218;2024-03-25T06:39:29;5.05;;;1.88;;
29384;SDS011;16367;48.736;9.218;2024-03-25T06:41:30;6.50;;;2.15;;
29384;SDS011;16367;48.736;9.218;2024-03-25T06:45:32;7.25;;;2.00;;
29384;SDS011;16367;48.736;9.218;2024-03-25T06:47:33;5.75;;;2.03;;
29384;SDS011;16367;48.736;9.218;2024-03-25T06:49:34;6.45;;;2.65;;
29384;SDS011;16367;48.736;9.218;2024-03-25T06:51:34;5.70;;;2.15;;
29384;SDS011;16367;48.736;9.218;2024-03-25T06:53:35;5.10;;;2.08;;
29384;SDS011;16367;48.736;9.218;2024-03-25T06:55:36;4.90;;;1.90;;
29384;SDS011;16367;48.736;9.218;2024-03-25T06:57:36;6.07;;;1.92;;
29384;SDS011;16367;48.736;9.218;2024-03-25T06:59:37;8.30;;;2.70;;
29384;SDS011;16367;48.736;9.218;2024-03-25T07:01:39;8.70;;;2.90;;
29384;SDS011;16367;48.736;9.218;2024-03-25T07:03:40;6.15;;;2.00;;
29384;SDS011;16367;48.736;9.218;2024-03-25T07:05:41;6.63;;;2.30;;
29384;SDS011;16367;48.736;9.218;2024-03-25T07:07:42;8.32;;;2.63;;
29384;SDS011;16367;48.736;9.218;2024-03-25T07:09:43;6.70;;;2.17;;
29384;SDS011;16367;48.736;9.218;2024-03-25T07:11:43;8.70;;;2.28;;
29384;SDS011;16367;48.736;9.218;2024-03-25T07:13:44;6.80;;;2.55;;
29384;SDS011;16367;48.736;9.218;2024-03-25T07:15:45;7.50;;;2.13;;
29384;SDS011;16367;48.736;9.218;2024-03-25T07:17:47;4.80;;;2.35;;
29384;SDS011;16367;48.736;9.218;2024-03-25T07:19:48;10.43;;;2.28;;
29384;SDS011;16367;48.736;9.218;2024-03-25T07:21:48;4.78;;;1.98;;
29384;SDS011;16367;48.736;9.218;2024-03-25T07:23:49;5.25;;;1.88;;
29384;SDS011;16367;48.736;9.218;2024-03-25T07:25:50;5.45;;;1.88;;
29384;SDS011;16367;48.736;9.218;2024-03-25T07:27:50;5.18;;;2.13;;
29384;SDS011;16367;48.736;9.218;2024-03-25T07:29:51;10.63;;;2.45;;
29384;SDS011;16367;48.736;9.218;2024-03-25T07:31:52;6.72;;;1.80;;
29384;SDS011;16367;48.736;9.218;2024-03-25T07:33:54;5.65;;;2.13;;
29384;SDS011;16367;48.736;9.218;2024-03-25T07:35:55;4.15;;;1.70;;
29384;SDS011;16367;48.736;9.218;2024-03-25T07:37:55;5.65;;;1.67;;
29384;SDS011;16367;48.736;9.218;2024-03-25T07:39:56;6.50;;;1.92;;
29384;SDS011;16367;48.736;9.218;2024-03-25T07:41:57;4.68;;;1.80;;
29384;SDS011;16367;48.736;9.218;2024-03-25T07:43:57;6.57;;;2.25;;
29384;SDS011;16367;48.736;9.218;2024-03-25T07:45:58;5.47;;;1.77;;
29384;SDS011;16367;48.736;9.218;2024-03-25T07:47:59;4.60;;;1.55;;
29384;SDS011;16367;48.736;9.218;2024-03-25T07:50:01;6.03;;;1.90;;
29384;SDS011;16367;48.736;9.218;2024-03-25T07:52:02;8.00;;;1.80;;
29384;SDS011;16367;48.736;9.218;2024-03-25T07:54:03;6.47;;;1.70;;
29384;SDS011;16367;48.736;9.218;2024-03-25T07:56:04;4.72;;;1.58;;
29384;SDS011;16367;48.736;9.218;2024-03-25T07:58:05;5.28;;;2.00;;
29384;SDS011;16367;48.736;9.218;2024-03-25T08:00:06;5.25;;;2.00;;
29384;SDS011;16367;48.736;9.218;2024-03-25T08:02:07;4.68;;;1.52;;
29384;SDS011;16367;48.736;9.218;2024-03-25T08:04:08;6.80;;;1.88;;
29384;SDS011;16367;48.736;9.218;2024-03-25T08:06:10;5.72;;;1.70;;
29384;SDS011;16367;48.736;9.218;2024-03-25T08:08:11;6.65;;;1.90;;
29384;SDS011;16367;48.736;9.218;2024-03-25T08:10:12;4.60;;;1.88;;
29384;SDS011;16367;48.736;9.218;2024-03-25T08:12:12;4.80;;;1.83;;
29384;SDS011;16367;48.736;9.218;2024-03-25T08:14:13;7.07;;;2.10;;
29384;SDS011;16367;48.736;9.218;2024-03-25T08:16:14;5.93;;;1.90;;
29384;SDS011;16367;48.736;9.218;2024-03-25T08:18:15;5.50;;;1.95;;
29384;SDS011;16367;48.736;9.218;2024-03-25T08:20:15;5.07;;;1.60;;
29384;SDS011;16367;48.736;9.218;2024-03-25T08:22:17;6.20;;;1.63;;
29384;SDS011;16367;48.736;9.218;2024-03-25T08:24:18;5.00;;;1.63;;
29384;SDS011;16367;48.736;9.218;2024-03-25T08:26:19;4.95;;;1.42;;
29384;SDS011;16367;48.736;9.218;2024-03-25T08:28:19;3.78;;;1.40;;
29384;SDS011;16367;48.736;9.218;2024-03-25T08:30:20;4.47;;;1.50;;
29384;SDS011;16367;48.736;9.218;2024-03-25T08:32:21;5.50;;;1.58;;
29384;SDS011;16367;48.736;9.218;2024-03-25T08:34:22;5.30;;;1.55;;
29384;SDS011;16367;48.736;9.218;2024-03-25T08:36:22;5.57;;;1.70;;
29384;SDS011;16367;48.736;9.218;2024-03-25T08:38:24;4.88;;;1.80;;
29384;SDS011;16367;48.736;9.218;2024-03-25T08:40:25;3.88;;;1.52;;
29384;SDS011;16367;48.736;9.218;2024-03-25T08:42:26;7.15;;;1.45;;
29384;SDS011;16367;48.736;9.218;2024-03-25T08:44:27;6.65;;;1.55;;
29384;SDS011;16367;48.736;9.218;2024-03-25T08:46:27;5.05;;;1.60;;
29384;SDS011;16367;48.736;9.218;2024-03-25T08:48:28;4.25;;;1.30;;
29384;SDS011;16367;48.736;9.218;2024-03-25T08:50:29;4.85;;;1.60;;
29384;SDS011;16367;48.736;9.218;2024-03-25T08:52:29;4.40;;;1.50;;
29384;SDS011;16367;48.736;9.218;2024-03-25T08:54:31;4.53;;;1.20;;
29384;SDS011;16367;48.736;9.218;2024-03-25T08:56:32;6.05;;;1.55;;
29384;SDS011;16367;48.736;9.218;2024-03-25T08:58:33;5.85;;;1.55;;
29384;SDS011;16367;48.736;9.218;2024-03-25T09:00:33;4.85;;;1.30;;
29384;SDS011;16367;48.736;9.218;2024-03-25T09:02:34;3.72;;;1.25;;
29384;SDS011;16367;48.736;9.218;2024-03-25T09:04:35;5.13;;;1.48;;
29384;SDS011;16367;48.736;9.218;2024-03-25T09:06:36;4.13;;;1.38;;
29384;SDS011;16367;48.736;9.218;2024-03-25T09:08:37;6.82;;;1.50;;
29384;SDS011;16367;48.736;9.218;2024-03-25T09:10:39;3.92;;;1.20;;
29384;SDS011;16367;48.736;9.218;2024-03-25T09:12:39;6.30;;;1.25;;
29384;SDS011;16367;48.736;9.218;2024-03-25T09:14:40;4.80;;;1.17;;
29384;SDS011;16367;48.736;9.218;2024-03-25T09:16:41;4.97;;;1.50;;
29384;SDS011;16367;48.736;9.218;2024-03-25T09:18:41;4.05;;;1.17;;
29384;SDS011;16367;48.736;9.218;2024-03-25T09:20:42;3.55;;;1.02;;
29384;SDS011;16367;48.736;9.218;2024-03-25T09:22:43;3.83;;;1.30;;
29384;SDS011;16367;48.736;9.218;2024-03-25T09:24:43;6.75;;;2.03;;
29384;SDS011;16367;48.736;9.218;2024-03-25T09:26:45;3.58;;;1.10;;
29384;SDS011;16367;48.736;9.218;2024-03-25T09:28:46;2.95;;;0.90;;
29384;SDS011;16367;48.736;9.218;2024-03-25T09:30:47;4.32;;;1.10;;
29384;SDS011;16367;48.736;9.218;2024-03-25T09:32:48;3.80;;;1.23;;
29384;SDS011;16367;48.736;9.218;2024-03-25T09:34:49;3.75;;;1.05;;
29384;SDS011;16367;48.736;9.218;2024-03-25T09:36:50;4.57;;;1.10;;
29384;SDS011;16367;48.736;9.218;2024-03-25T09:38:50;4.35;;;1.08;;
29384;SDS011;16367;48.736;9.218;2024-03-25T09:40:52;5.25;;;1.20;;
29384;SDS011;16367;48.736;9.218;2024-03-25T09:42:55;5.22;;;1.20;;
29384;SDS011;16367;48.736;9.218;2024-03-25T09:44:57;3.13;;;0.90;;
29384;SDS011;16367;48.736;9.218;2024-03-25T09:46:57;2.90;;;1.20;;
29384;SDS011;16367;48.736;9.218;2024-03-25T09:48:58;2.95;;;1.25;;
29384;SDS011;16367;48.736;9.218;2024-03-25T09:51:00;3.47;;;1.00;;
29384;SDS011;16367;48.736;9.218;2024-03-25T09:53:02;3.35;;;1.20;;
29384;SDS011;16367;48.736;9.218;2024-03-25T09:55:03;3.38;;;1.20;;
29384;SDS011;16367;48.736;9.218;2024-03-25T09:57:05;4.03;;;1.30;;
29384;SDS011;16367;48.736;9.218;2024-03-25T09:59:07;6.72;;;1.40;;
29384;SDS011;16367;48.736;9.218;2024-03-25T10:01:08;5.15;;;1.30;;
29384;SDS011;16367;48.736;9.218;2024-03-25T10:03:09;4.20;;;1.30;;
29384;SDS011;16367;48.736;9.218;2024-03-25T10:05:10;3.10;;;1.15;;
29384;SDS011;16367;48.736;9.218;2024-03-25T10:07:10;3.33;;;1.00;;
29384;SDS011;16367;48.736;9.218;2024-03-25T10:09:11;8.18;;;1.60;;
29384;SDS011;16367;48.736;9.218;2024-03-25T10:11:12;3.70;;;1.20;;
29384;SDS011;16367;48.736;9.218;2024-03-25T10:13:13;4.47;;;1.50;;
29384;SDS011;16367;48.736;9.218;2024-03-25T10:15:18;3.65;;;1.30;;
29384;SDS011;16367;48.736;9.218;2024-03-25T10:17:18;3.63;;;1.17;;
29384;SDS011;16367;48.736;9.218;2024-03-25T10:19:19;4.05;;;1.23;;
29384;SDS011;16367;48.736;9.218;2024-03-25T10:21:20;4.20;;;1.13;;
29384;SDS011;16367;48.736;9.218;2024-03-25T10:23:21;5.15;;;1.02;;
29384;SDS011;16367;48.736;9.218;2024-03-25T10:25:23;3.58;;;1.48;;
29384;SDS011;16367;48.736;9.218;2024-03-25T10:27:26;5.63;;;1.25;;
29384;SDS011;16367;48.736;9.218;2024-03-25T10:29:27;4.57;;;1.95;;
29384;SDS011;16367;48.736;9.218;2024-03-25T10:31:29;4.20;;;1.20;;
29384;SDS011;16367;48.736;9.218;2024-03-25T10:33:30;3.45;;;1.20;;
29384;SDS011;16367;48.736;9.218;2024-03-25T10:35:31;6.05;;;1.35;;
29384;SDS011;16367;48.736;9.218;2024-03-25T10:37:32;4.85;;;1.35;;
29384;SDS011;16367;48.736;9.218;2024-03-25T10:39:36;4.55;;;1.13;;
29384;SDS011;16367;48.736;9.218;2024-03-25T10:41:40;4.00;;;1.27;;
29384;SDS011;16367;48.736;9.218;2024-03-25T10:43:42;4.13;;;1.63;;
29384;SDS011;16367;48.736;9.218;2024-03-25T10:45:45;5.15;;;1.35;;
29384;SDS011;16367;48.736;9.218;2024-03-25T10:47:47;4.93;;;1.30;;
29384;SDS011;16367;48.736;9.218;2024-03-25T10:49:49;4.53;;;1.20;;
29384;SDS011;16367;48.736;9.218;2024-03-25T10:51:55;3.75;;;1.33;;
29384;SDS011;16367;48.736;9.218;2024-03-25T10:53:57;4.68;;;1.85;;
29384;SDS011;16367;48.736;9.218;2024-03-25T10:55:59;5.90;;;1.42;;
29384;SDS011;16367;48.736;9.218;2024-03-25T10:58:01;4.47;;;1.45;;
29384;SDS011;16367;48.736;9.218;2024-03-25T11:00:03;4.07;;;1.52;;
29384;SDS011;16367;48.736;9.218;2024-03-25T11:02:04;4.80;;;1.40;;
29384;SDS011;16367;48.736;9.218;2024-03-25T11:04:06;3.92;;;1.30;;
29384;SDS011;16367;48.736;9.218;2024-03-25T11:06:07;3.67;;;1.52;;
29384;SDS011;16367;48.736;9.218;2024-03-25T11:08:11;3.83;;;1.45;;
29384;SDS011;16367;48.736;9.218;2024-03-25T11:10:12;7.32;;;1.90;;
29384;SDS011;16367;48.736;9.218;2024-03-25T11:12:13;5.20;;;1.58;;
29384;SDS011;16367;48.736;9.218;2024-03-25T11:14:15;5.40;;;1.48;;
29384;SDS011;16367;48.736;9.218;2024-03-25T11:16:25;9.10;;;1.77;;
29384;SDS011;16367;48.736;9.218;2024-03-25T11:18:28;5.03;;;1.40;;
29384;SDS011;16367;48.736;9.218;2024-03-25T11:20:31;4.60;;;1.65;;
29384;SDS011;16367;48.736;9.218;2024-03-25T11:22:31;5.47;;;1.73;;
29384;SDS011;16367;48.736;9.218;2024-03-25T11:24:32;4.63;;;1.52;;
29384;SDS011;16367;48.736;9.218;2024-03-25T11:26:34;4.80;;;1.45;;
29384;SDS011;16367;48.736;9.218;2024-03-25T11:28:35;3.63;;;1.40;;
29384;SDS011;16367;48.736;9.218;2024-03-25T11:30:36;4.40;;;1.30;;
29384;SDS011;16367;48.736;9.218;2024-03-25T11:32:43;4.88;;;1.55;;
29384;SDS011;16367;48.736;9.218;2024-03-25T11:34:51;8.13;;;1.80;;
29384;SDS011;16367;48.736;9.218;2024-03-25T11:39:03;4.53;;;1.63;;
29384;SDS011;16367;48.736;9.218;2024-03-25T11:41:04;4.82;;;1.50;;
29384;SDS011;16367;48.736;9.218;2024-03-25T11:43:05;4.88;;;1.50;;
29384;SDS011;16367;48.736;9.218;2024-03-25T11:45:06;7.20;;;1.88;;
29384;SDS011;16367;48.736;9.218;2024-03-25T11:47:08;5.35;;;1.40;;
29384;SDS011;16367;48.736;9.218;2024-03-25T11:49:11;6.22;;;2.03;;
29384;SDS011;16367;48.736;9.218;2024-03-25T11:51:14;4.97;;;2.35;;
29384;SDS011;16367;48.736;9.218;2024-03-25T11:53:18;4.05;;;1.38;;
29384;SDS011;16367;48.736;9.218;2024-03-25T11:55:19;5.50;;;2.08;;
29384;SDS011;16367;48.736;9.218;2024-03-25T11:57:20;4.32;;;1.80;;
29384;SDS011;16367;48.736;9.218;2024-03-25T11:59:21;4.68;;;1.50;;
29384;SDS011;16367;48.736;9.218;2024-03-25T12:01:22;4.18;;;1.52;;
29384;SDS011;16367;48.736;9.218;2024-03-25T12:03:22;5.97;;;1.73;;
29384;SDS011;16367;48.736;9.218;2024-03-25T12:05:23;4.75;;;1.63;;
29384;SDS011;16367;48.736;9.218;2024-03-25T12:07:24;4.57;;;1.83;;
29384;SDS011;16367;48.736;9.218;2024-03-25T12:09:26;4.75;;;1.42;;
29384;SDS011;16367;48.736;9.218;2024-03-25T12:11:27;4.32;;;1.40;;
29384;SDS011;16367;48.736;9.218;2024-03-25T12:13:28;3.05;;;1.35;;
29384;SDS011;16367;48.736;9.218;2024-03-25T12:15:28;3.33;;;1.40;;
29384;SDS011;16367;48.736;9.218;2024-03-25T12:17:29;3.50;;;1.35;;
29384;SDS011;16367;48.736;9.218;2024-03-25T12:19:30;2.72;;;1.23;;
29384;SDS011;16367;48.736;9.218;2024-03-25T12:21:31;7.60;;;1.40;;
29384;SDS011;16367;48.736;9.218;2024-03-25T12:23:32;3.97;;;1.73;;
29384;SDS011;16367;48.736;9.218;2024-03-25T12:25:34;6.65;;;1.80;;
29384;SDS011;16367;48.736;9.218;2024-03-25T12:27:36;4.90;;;1.58;;
29384;SDS011;16367;48.736;9.218;2024-03-25T12:29:38;5.32;;;1.77;;
29384;SDS011;16367;48.736;9.218;2024-03-25T12:31:39;4.65;;;1.67;;
29384;SDS011;16367;48.736;9.218;2024-03-25T12:33:40;5.22;;;1.55;;
29384;SDS011;16367;48.736;9.218;2024-03-25T12:35:41;4.65;;;1.27;;
29384;SDS011;16367;48.736;9.218;2024-03-25T12:37:42;6.55;;;1.50;;
29384;SDS011;16367;48.736;9.218;2024-03-25T12:39:47;5.32;;;1.52;;
29384;SDS011;16367;48.736;9.218;2024-03-25T12:41:49;5.47;;;1.58;;
29384;SDS011;16367;48.736;9.218;2024-03-25T12:43:50;3.72;;;1.27;;
29384;SDS011;16367;48.736;9.218;2024-03-25T12:45:51;4.10;;;1.42;;
29384;SDS011;16367;48.736;9.218;2024-03-25T12:47:51;4.65;;;1.50;;
29384;SDS011;16367;48.736;9.218;2024-03-25T12:49:52;3.00;;;1.20;;
29384;SDS011;16367;48.736;9.218;2024-03-25T12:51:53;3.15;;;1.25;;
29384;SDS011;16367;48.736;9.218;2024-03-25T12:53:54;5.43;;;1.40;;
29384;SDS011;16367;48.736;9.218;2024-03-25T12:55:54;4.25;;;1.63;;
29384;SDS011;16367;48.736;9.218;2024-03-25T12:57:56;3.88;;;1.52;;
29384;SDS011;16367;48.736;9.218;2024-03-25T12:59:57;4.72;;;1.70;;
29384;SDS011;16367;48.736;9.218;2024-03-25T13:01:58;5.22;;;2.17;;
29384;SDS011;16367;48.736;9.218;2024-03-25T13:03:59;4.00;;;1.55;;
29384;SDS011;16367;48.736;9.218;2024-03-25T13:05:59;4.20;;;1.70;;
29384;SDS011;16367;48.736;9.218;2024-03-25T13:08:00;4.35;;;1.52;;
29384;SDS011;16367;48.736;9.218;2024-03-25T13:10:01;5.88;;;1.60;;
29384;SDS011;16367;48.736;9.218;2024-03-25T13:12:02;5.30;;;1.70;;
29384;SDS011;16367;48.736;9.218;2024-03-25T13:14:05;4.85;;;1.60;;
29384;SDS011;16367;48.736;9.218;2024-03-25T13:16:05;4.75;;;1.60;;
29384;SDS011;16367;48.736;9.218;2024-03-25T13:18:06;5.43;;;1.60;;
29384;SDS011;16367;48.736;9.218;2024-03-25T13:20:07;3.67;;;1.25;;
29384;SDS011;16367;48.736;9.218;2024-03-25T13:22:09;5.82;;;2.10;;
29384;SDS011;16367;48.736;9.218;2024-03-25T13:24:10;3.63;;;1.50;;
29384;SDS011;16367;48.736;9.218;2024-03-25T13:26:11;5.20;;;1.58;;
29384;SDS011;16367;48.736;9.218;2024-03-25T13:28:12;3.92;;;1.58;;
29384;SDS011;16367;48.736;9.218;2024-03-25T13:30:14;5.68;;;1.60;;
29384;SDS011;16367;48.736;9.218;2024-03-25T13:32:15;4.30;;;1.50;;
29384;SDS011;16367;48.736;9.218;2024-03-25T13:34:15;4.32;;;1.20;;
29384;SDS011;16367;48.736;9.218;2024-03-25T13:36:16;4.82;;;1.60;;
29384;SDS011;16367;48.736;9.218;2024-03-25T13:38:17;3.83;;;1.50;;
29384;SDS011;16367;48.736;9.218;2024-03-25T13:40:17;5.35;;;1.70;;
29384;SDS011;16367;48.736;9.218;2024-03-25T13:42:18;4.32;;;1.60;;
29384;SDS011;16367;48.736;9.218;2024-03-25T13:44:19;4.78;;;1.42;;
29384;SDS011;16367;48.736;9.218;2024-03-25T13:46:21;5.43;;;1.70;;
29384;SDS011;16367;48.736;9.218;2024-03-25T13:48:22;4.55;;;1.60;;
29384;SDS011;16367;48.736;9.218;2024-03-25T13:50:22;5.70;;;1.50;;
29384;SDS011;16367;48.736;9.218;2024-03-25T13:52:23;5.93;;;1.42;;
29384;SDS011;16367;48.736;9.218;2024-03-25T13:54:24;4.15;;;1.40;;
29384;SDS011;16367;48.736;9.218;2024-03-25T13:56:24;3.67;;;1.30;;
29384;SDS011;16367;48.736;9.218;2024-03-25T13:58:25;4.30;;;1.38;;
29384;SDS011;16367;48.736;9.218;2024-03-25T14:00:26;5.13;;;1.30;;
29384;SDS011;16367;48.736;9.218;2024-03-25T14:02:28;3.45;;;1.25;;
29384;SDS011;16367;48.736;9.218;2024-03-25T14:04:29;3.65;;;1.00;;
29384;SDS011;16367;48.736;9.218;2024-03-25T14:06:29;4.97;;;1.35;;
29384;SDS011;16367;48.736;9.218;2024-03-25T14:08:30;4.95;;;1.35;;
29384;SDS011;16367;48.736;9.218;2024-03-25T14:10:31;5.25;;;1.38;;
29384;SDS011;16367;48.736;9.218;2024-03-25T14:12:31;8.38;;;1.83;;
29384;SDS011;16367;48.736;9.218;2024-03-25T14:14:32;3.42;;;1.35;;
29384;SDS011;16367;48.736;9.218;2024-03-25T14:16:33;4.85;;;1.75;;
29384;SDS011;16367;48.736;9.218;2024-03-25T14:18:35;3.83;;;1.40;;
29384;SDS011;16367;48.736;9.218;2024-03-25T14:20:35;6.05;;;1.80;;
29384;SDS011;16367;48.736;9.218;2024-03-25T14:22:36;6.00;;;1.48;;
29384;SDS011;16367;48.736;9.218;2024-03-25T14:24:37;6.00;;;1.60;;
29384;SDS011;16367;48.736;9.218;2024-03-25T14:26:37;4.38;;;1.45;;
29384;SDS011;16367;48.736;9.218;2024-03-25T14:28:40;4.05;;;1.23;;
29384;SDS011;16367;48.736;9.218;2024-03-25T14:30:40;5.05;;;1.40;;
29384;SDS011;16367;48.736;9.218;2024-03-25T14:32:41;4.45;;;1.48;;
29384;SDS011;16367;48.736;9.218;2024-03-25T14:34:43;3.83;;;1.30;;
29384;SDS011;16367;48.736;9.218;2024-03-25T14:36:44;3.67;;;1.27;;
29384;SDS011;16367;48.736;9.218;2024-03-25T14:38:45;3.50;;;1.30;;
29384;SDS011;16367;48.736;9.218;2024-03-25T14:40:46;5.18;;;1.30;;
29384;SDS011;16367;48.736;9.218;2024-03-25T14:42:47;4.78;;;1.13;;
29384;SDS011;16367;48.736;9.218;2024-03-25T14:44:48;4.78;;;1.33;;
29384;SDS011;16367;48.736;9.218;2024-03-25T14:46:48;4.40;;;1.30;;
29384;SDS011;16367;48.736;9.218;2024-03-25T14:48:49;5.38;;;1.30;;
29384;SDS011;16367;48.736;9.218;2024-03-25T14:50:51;4.50;;;1.30;;